sensor_id;sensor_type;location;lat;lon;timestamp;pressure;altitude;pressure_sealevel;temperature;humidity
64019;BME280;66942;52.138;5.216;2023-04-28T00:01:33;101456.0;;;16.52;32.71
64019;BME280;66942;52.138;5.216;2023-04-28T00:03:09;101449.0;;;16.66;33.26
64019;BME280;66942;52.138;5.216;2023-04-28T00:06:21;101439.0;;;17.11;31.98
64019;BME280;66942;52.138;5.216;2023-04-28T00:07:57;101433.0;;;16.66;32.64
64019;BME280;66942;52.138;5.216;2023-04-28T00:09:33;101435.0;;;17.09;32.54
64019;BME280;66942;52.138;5.216;2023-04-28T00:12:46;101426.0;;;16.68;32.3
64019;BME280;66942;52.138;5.216;2023-04-28T00:14:23;101420.0;;;17.12;32.46
64019;BME280;66942;52.138;5.216;2023-04-28T00:16:00;101418.0;;;17.11;32.21
64019;BME280;66942;52.138;5.216;2023-04-28T00:17:36;101405.0;;;16.43;32.65
64019;BME280;66942;52.138;5.216;2023-04-28T00:20:48;101403.0;;;16.47;32.96
64019;BME280;66942;52.138;5.216;2023-04-28T00:22:24;101399.0;;;17.07;32.35
64019;BME280;66942;52.138;5.216;2023-04-28T00:24:00;101405.0;;;17.04;32.44
64019;BME280;66942;52.138;5.216;2023-04-28T00:27:13;101400.0;;;16.72;32.42
64019;BME280;66942;52.138;5.216;2023-04-28T00:28:49;101394.0;;;16.62;32.32
64019;BME280;66942;52.138;5.216;2023-04-28T00:30:25;101398.0;;;16.93;32.14
64019;BME280;66942;52.138;5.216;2023-04-28T00:33:38;101390.0;;;17.09;31.88
64019;BME280;66942;52.138;5.216;2023-04-28T00:35:15;101383.0;;;17.05;32.58
64019;BME280;66942;52.138;5.216;2023-04-28T00:36:51;101390.0;;;16.86;32.39
64019;BME280;66942;52.138;5.216;2023-04-28T00:38:27;101380.0;;;17.12;33.17
64019;BME280;66942;52.138;5.216;2023-04-28T00:41:40;101381.0;;;16.89;32.35
64019;BME280;66942;52.138;5.216;2023-04-28T00:43:16;101377.0;;;16.78;32.58
64019;BME280;66942;52.138;5.216;2023-04-28T00:44:52;101380.0;;;17.04;32.07
64019;BME280;66942;52.138;5.216;2023-04-28T00:48:08;101380.0;;;16.91;32.6
64019;BME280;66942;52.138;5.216;2023-04-28T00:49:45;101374.0;;;16.45;32.53
64019;BME280;66942;52.138;5.216;2023-04-28T00:51:22;101372.0;;;16.47;32.82
64019;BME280;66942;52.138;5.216;2023-04-28T00:54:36;101374.0;;;16.96;32.74
64019;BME280;66942;52.138;5.216;2023-04-28T00:56:12;101370.0;;;16.75;32.43
64019;BME280;66942;52.138;5.216;2023-04-28T00:57:50;101370.0;;;16.63;33.01
64019;BME280;66942;52.138;5.216;2023-04-28T00:59:26;101362.0;;;16.65;32.92
64019;BME280;66942;52.138;5.216;2023-04-28T01:02:40;101355.0;;;16.63;33.21
64019;BME280;66942;52.138;5.216;2023-04-28T01:04:19;101348.0;;;16.81;33.43
64019;BME280;66942;52.138;5.216;2023-04-28T01:05:55;101343.0;;;16.8;32.92
64019;BME280;66942;52.138;5.216;2023-04-28T01:09:08;101345.0;;;16.66;32.9
64019;BME280;66942;52.138;5.216;2023-04-28T01:10:44;101349.0;;;16.93;32.44
64019;BME280;66942;52.138;5.216;2023-04-28T01:12:20;101346.0;;;16.97;32.61
64019;BME280;66942;52.138;5.216;2023-04-28T01:13:57;101351.0;;;16.86;33.3
64019;BME280;66942;52.138;5.216;2023-04-28T01:17:10;101349.0;;;16.9;32.68
64019;BME280;66942;52.138;5.216;2023-04-28T01:18:47;101351.0;;;16.8;33.96
64019;BME280;66942;52.138;5.216;2023-04-28T01:20:23;101348.0;;;16.93;33.14
64019;BME280;66942;52.138;5.216;2023-04-28T01:23:35;101350.0;;;16.68;33.17
64019;BME280;66942;52.138;5.216;2023-04-28T01:25:11;101345.0;;;16.84;33.18
64019;BME280;66942;52.138;5.216;2023-04-28T01:26:47;101342.0;;;16.8;33.06
64019;BME280;66942;52.138;5.216;2023-04-28T01:30:00;101338.0;;;16.84;33.54
64019;BME280;66942;52.138;5.216;2023-04-28T01:31:36;101337.0;;;16.77;33.87
64019;BME280;66942;52.138;5.216;2023-04-28T01:33:12;101334.0;;;17.02;33.56
64019;BME280;66942;52.138;5.216;2023-04-28T01:36:24;101327.0;;;16.75;34.4
64019;BME280;66942;52.138;5.216;2023-04-28T01:38:01;101320.0;;;17.03;32.96
64019;BME280;66942;52.138;5.216;2023-04-28T01:39:37;101314.0;;;16.4;33.78
64019;BME280;66942;52.138;5.216;2023-04-28T01:41:13;101305.0;;;16.64;33.24
64019;BME280;66942;52.138;5.216;2023-04-28T01:44:26;101308.0;;;16.29;33.29
64019;BME280;66942;52.138;5.216;2023-04-28T01:46:02;101310.0;;;16.43;33.03
64019;BME280;66942;52.138;5.216;2023-04-28T01:47:38;101308.0;;;16.64;33.1
64019;BME280;66942;52.138;5.216;2023-04-28T01:50:50;101302.0;;;16.73;33.03
64019;BME280;66942;52.138;5.216;2023-04-28T01:52:26;101306.0;;;16.43;33.39
64019;BME280;66942;52.138;5.216;2023-04-28T01:54:02;101299.0;;;16.82;32.67
64019;BME280;66942;52.138;5.216;2023-04-28T01:57:15;101302.0;;;16.77;33.06
64019;BME280;66942;52.138;5.216;2023-04-28T01:58:51;101302.0;;;16.8;33.04
64019;BME280;66942;52.138;5.216;2023-04-28T02:00:27;101299.0;;;16.84;33.72
64019;BME280;66942;52.138;5.216;2023-04-28T02:03:39;101292.0;;;16.45;33.87
64019;BME280;66942;52.138;5.216;2023-04-28T02:05:15;101296.0;;;16.64;33.58
64019;BME280;66942;52.138;5.216;2023-04-28T02:06:51;101294.0;;;16.81;33.55
64019;BME280;66942;52.138;5.216;2023-04-28T02:08:27;101293.0;;;16.97;33.96
64019;BME280;66942;52.138;5.216;2023-04-28T02:11:41;101292.0;;;16.63;33.35
64019;BME280;66942;52.138;5.216;2023-04-28T02:13:17;101290.0;;;16.75;33.74
64019;BME280;66942;52.138;5.216;2023-04-28T02:14:53;101286.0;;;16.61;33.25
64019;BME280;66942;52.138;5.216;2023-04-28T02:18:05;101284.0;;;16.91;32.64
64019;BME280;66942;52.138;5.216;2023-04-28T02:19:41;101283.0;;;16.97;33.24
64019;BME280;66942;52.138;5.216;2023-04-28T02:21:17;101284.0;;;16.75;33.1
64019;BME280;66942;52.138;5.216;2023-04-28T02:24:30;101277.0;;;16.46;34.01
64019;BME280;66942;52.138;5.216;2023-04-28T02:26:09;101273.0;;;16.39;33.71
64019;BME280;66942;52.138;5.216;2023-04-28T02:27:45;101266.0;;;16.66;33.12
64019;BME280;66942;52.138;5.216;2023-04-28T02:29:21;101269.0;;;16.59;33.56
64019;BME280;66942;52.138;5.216;2023-04-28T02:32:49;101263.0;;;16.81;33.54
64019;BME280;66942;52.138;5.216;2023-04-28T02:34:25;101260.0;;;16.64;33.74
64019;BME280;66942;52.138;5.216;2023-04-28T02:36:03;101257.0;;;16.68;33.32
64019;BME280;66942;52.138;5.216;2023-04-28T02:37:39;101258.0;;;16.36;34.17
64019;BME280;66942;52.138;5.216;2023-04-28T02:40:56;101257.0;;;16.5;33.92
64019;BME280;66942;52.138;5.216;2023-04-28T02:42:33;101258.0;;;16.57;34.31
64019;BME280;66942;52.138;5.216;2023-04-28T02:44:09;101252.0;;;16.4;33.58
64019;BME280;66942;52.138;5.216;2023-04-28T02:47:21;101248.0;;;16.57;33.33
64019;BME280;66942;52.138;5.216;2023-04-28T02:48:57;101247.0;;;16.55;33.74
64019;BME280;66942;52.138;5.216;2023-04-28T02:50:33;101244.0;;;16.45;34.96
64019;BME280;66942;52.138;5.216;2023-04-28T02:53:46;101240.0;;;16.56;34.43
64019;BME280;66942;52.138;5.216;2023-04-28T02:55:22;101237.0;;;16.56;34.87
64019;BME280;66942;52.138;5.216;2023-04-28T02:56:58;101225.0;;;16.37;33.94
64019;BME280;66942;52.138;5.216;2023-04-28T02:58:34;101228.0;;;16.47;33.74
64019;BME280;66942;52.138;5.216;2023-04-28T03:01:48;101225.0;;;16.47;34.89
64019;BME280;66942;52.138;5.216;2023-04-28T03:03:24;101217.0;;;16.66;33.75
64019;BME280;66942;52.138;5.216;2023-04-28T03:05:01;101213.0;;;16.47;33.99
64019;BME280;66942;52.138;5.216;2023-04-28T03:08:13;101210.0;;;16.32;33.83
64019;BME280;66942;52.138;5.216;2023-04-28T03:09:49;101207.0;;;16.47;34.06
64019;BME280;66942;52.138;5.216;2023-04-28T03:11:25;101203.0;;;16.5;34.18
64019;BME280;66942;52.138;5.216;2023-04-28T03:14:37;101205.0;;;16.55;33.97
64019;BME280;66942;52.138;5.216;2023-04-28T03:16:13;101202.0;;;16.36;34.53
64019;BME280;66942;52.138;5.216;2023-04-28T03:17:49;101200.0;;;16.46;35.07
64019;BME280;66942;52.138;5.216;2023-04-28T03:21:02;101200.0;;;16.39;34.61
64019;BME280;66942;52.138;5.216;2023-04-28T03:22:38;101193.0;;;16.5;34.56
64019;BME280;66942;52.138;5.216;2023-04-28T03:24:14;101198.0;;;16.54;34.17
64019;BME280;66942;52.138;5.216;2023-04-28T03:25:50;101192.0;;;16.5;34.19
64019;BME280;66942;52.138;5.216;2023-04-28T03:29:02;101189.0;;;16.27;34.56
64019;BME280;66942;52.138;5.216;2023-04-28T03:30:38;101184.0;;;16.46;34.64
64019;BME280;66942;52.138;5.216;2023-04-28T03:32:15;101183.0;;;16.53;33.99
64019;BME280;66942;52.138;5.216;2023-04-28T03:35:27;101186.0;;;16.36;34.35
64019;BME280;66942;52.138;5.216;2023-04-28T03:37:03;101183.0;;;16.04;35.03
64019;BME280;66942;52.138;5.216;2023-04-28T03:38:39;101176.0;;;16.36;35.42
64019;BME280;66942;52.138;5.216;2023-04-28T03:41:51;101174.0;;;16.4;34.78
64019;BME280;66942;52.138;5.216;2023-04-28T03:43:27;101176.0;;;16.22;34.89
64019;BME280;66942;52.138;5.216;2023-04-28T03:45:04;101170.0;;;16.48;34.4
64019;BME280;66942;52.138;5.216;2023-04-28T03:46:41;101172.0;;;16.45;34.6
64019;BME280;66942;52.138;5.216;2023-04-28T03:49:53;101178.0;;;16.36;35.1
64019;BME280;66942;52.138;5.216;2023-04-28T03:51:29;101170.0;;;16.43;34.56
64019;BME280;66942;52.138;5.216;2023-04-28T03:53:05;101171.0;;;16.23;34.65
64019;BME280;66942;52.138;5.216;2023-04-28T03:56:17;101167.0;;;16.46;35.65
64019;BME280;66942;52.138;5.216;2023-04-28T03:57:53;101158.0;;;16.65;34.92
64019;BME280;66942;52.138;5.216;2023-04-28T03:59:31;101156.0;;;15.87;35.24
64019;BME280;66942;52.138;5.216;2023-04-28T04:02:43;101150.0;;;16.5;34.56
64019;BME280;66942;52.138;5.216;2023-04-28T04:04:19;101151.0;;;16.48;34.99
64019;BME280;66942;52.138;5.216;2023-04-28T04:05:55;101146.0;;;16.45;34.53
64019;BME280;66942;52.138;5.216;2023-04-28T04:09:07;101144.0;;;16.11;35.42
64019;BME280;66942;52.138;5.216;2023-04-28T04:10:43;101144.0;;;16.11;35.19
64019;BME280;66942;52.138;5.216;2023-04-28T04:12:20;101139.0;;;16.39;36.11
64019;BME280;66942;52.138;5.216;2023-04-28T04:13:56;101140.0;;;16.36;35.49
64019;BME280;66942;52.138;5.216;2023-04-28T04:17:08;101139.0;;;16.31;35.49
64019;BME280;66942;52.138;5.216;2023-04-28T04:18:44;101147.0;;;16.06;35.58
64019;BME280;66942;52.138;5.216;2023-04-28T04:20:20;101138.0;;;16.15;35.39
64019;BME280;66942;52.138;5.216;2023-04-28T04:23:33;101141.0;;;16.05;35.89
64019;BME280;66942;52.138;5.216;2023-04-28T04:25:09;101135.0;;;16.18;35.39
64019;BME280;66942;52.138;5.216;2023-04-28T04:26:46;101137.0;;;16.38;35.17
64019;BME280;66942;52.138;5.216;2023-04-28T04:29:58;101136.0;;;16.43;35.31
64019;BME280;66942;52.138;5.216;2023-04-28T04:31:34;101128.0;;;16.56;35.12
64019;BME280;66942;52.138;5.216;2023-04-28T04:33:10;101127.0;;;16.32;35.87
64019;BME280;66942;52.138;5.216;2023-04-28T04:36:22;101121.0;;;16.36;36.17
64019;BME280;66942;52.138;5.216;2023-04-28T04:37:59;101116.0;;;15.96;36.26
64019;BME280;66942;52.138;5.216;2023-04-28T04:39:35;101110.0;;;16.5;35.58
64019;BME280;66942;52.138;5.216;2023-04-28T04:41:11;101113.0;;;16.52;35.17
64019;BME280;66942;52.138;5.216;2023-04-28T04:44:23;101110.0;;;16.3;35.64
64019;BME280;66942;52.138;5.216;2023-04-28T04:45:59;101101.0;;;16.52;35.82
64019;BME280;66942;52.138;5.216;2023-04-28T04:47:35;101099.0;;;16.73;35.6
64019;BME280;66942;52.138;5.216;2023-04-28T04:50:47;101094.0;;;16.5;36.6
64019;BME280;66942;52.138;5.216;2023-04-28T04:52:24;101094.0;;;16.27;35.96
64019;BME280;66942;52.138;5.216;2023-04-28T04:54:00;101091.0;;;16.71;35.85
64019;BME280;66942;52.138;5.216;2023-04-28T04:57:12;101087.0;;;16.75;35.72
64019;BME280;66942;52.138;5.216;2023-04-28T04:58:50;101088.0;;;16.72;35.46
64019;BME280;66942;52.138;5.216;2023-04-28T05:00:27;101086.0;;;16.77;35.92
64019;BME280;66942;52.138;5.216;2023-04-28T05:02:03;101089.0;;;16.7;36.08
64019;BME280;66942;52.138;5.216;2023-04-28T05:05:16;101093.0;;;16.57;37.19
64019;BME280;66942;52.138;5.216;2023-04-28T05:06:52;101097.0;;;16.68;36.21
64019;BME280;66942;52.138;5.216;2023-04-28T05:08:28;101092.0;;;16.77;36.87
64019;BME280;66942;52.138;5.216;2023-04-28T05:11:41;101089.0;;;16.78;36.07
64019;BME280;66942;52.138;5.216;2023-04-28T05:13:17;101087.0;;;16.75;36.72
64019;BME280;66942;52.138;5.216;2023-04-28T05:14:53;101089.0;;;16.75;36.85
64019;BME280;66942;52.138;5.216;2023-04-28T05:18:06;101096.0;;;16.54;37.71
64019;BME280;66942;52.138;5.216;2023-04-28T05:19:42;101105.0;;;16.62;36.6
64019;BME280;66942;52.138;5.216;2023-04-28T05:21:18;101105.0;;;16.84;36.31
64019;BME280;66942;52.138;5.216;2023-04-28T05:24:30;101111.0;;;16.63;36.82
64019;BME280;66942;52.138;5.216;2023-04-28T05:26:06;101110.0;;;16.95;36.42
64019;BME280;66942;52.138;5.216;2023-04-28T05:27:42;101110.0;;;16.81;37.06
64019;BME280;66942;52.138;5.216;2023-04-28T05:29:19;101114.0;;;16.91;37.92
64019;BME280;66942;52.138;5.216;2023-04-28T05:32:32;101112.0;;;16.7;39.08
64019;BME280;66942;52.138;5.216;2023-04-28T05:34:09;101110.0;;;16.5;40.01
64019;BME280;66942;52.138;5.216;2023-04-28T05:35:45;101109.0;;;16.78;40.42
64019;BME280;66942;52.138;5.216;2023-04-28T05:38:58;101107.0;;;16.75;41.82
64019;BME280;66942;52.138;5.216;2023-04-28T05:40:34;101108.0;;;16.68;42.7
64019;BME280;66942;52.138;5.216;2023-04-28T05:42:11;101102.0;;;16.7;42.44
64019;BME280;66942;52.138;5.216;2023-04-28T05:45:23;101109.0;;;16.52;43.36
64019;BME280;66942;52.138;5.216;2023-04-28T05:47:00;101105.0;;;16.46;44.72
64019;BME280;66942;52.138;5.216;2023-04-28T05:48:36;101105.0;;;16.3;45.7
64019;BME280;66942;52.138;5.216;2023-04-28T05:50:12;101099.0;;;16.34;45.43
64019;BME280;66942;52.138;5.216;2023-04-28T05:53:26;101099.0;;;16.25;46.23
64019;BME280;66942;52.138;5.216;2023-04-28T05:55:02;101105.0;;;16.04;46.28
64019;BME280;66942;52.138;5.216;2023-04-28T05:56:38;101109.0;;;16.16;45.65
64019;BME280;66942;52.138;5.216;2023-04-28T05:59:50;101101.0;;;16.36;45.42
64019;BME280;66942;52.138;5.216;2023-04-28T06:01:26;101096.0;;;16.43;44.93
64019;BME280;66942;52.138;5.216;2023-04-28T06:03:02;101087.0;;;16.7;43.49
64019;BME280;66942;52.138;5.216;2023-04-28T06:06:17;101085.0;;;16.68;45.24
64019;BME280;66942;52.138;5.216;2023-04-28T06:07:53;101074.0;;;16.72;44.65
64019;BME280;66942;52.138;5.216;2023-04-28T06:09:29;101071.0;;;16.7;44.67
64019;BME280;66942;52.138;5.216;2023-04-28T06:11:05;101077.0;;;16.63;46.29
64019;BME280;66942;52.138;5.216;2023-04-28T06:14:17;101066.0;;;16.86;43.94
64019;BME280;66942;52.138;5.216;2023-04-28T06:15:53;101064.0;;;17.07;43.53
64019;BME280;66942;52.138;5.216;2023-04-28T06:17:29;101061.0;;;16.97;43.84
64019;BME280;66942;52.138;5.216;2023-04-28T06:20:42;101061.0;;;16.91;44.05
64019;BME280;66942;52.138;5.216;2023-04-28T06:22:18;101060.0;;;17.13;43.25
64019;BME280;66942;52.138;5.216;2023-04-28T06:23:54;101059.0;;;17.0;43.93
64019;BME280;66942;52.138;5.216;2023-04-28T06:27:06;101057.0;;;16.52;44.12
64019;BME280;66942;52.138;5.216;2023-04-28T06:28:42;101059.0;;;17.09;43.58
64019;BME280;66942;52.138;5.216;2023-04-28T06:30:21;101056.0;;;17.11;44.29
64019;BME280;66942;52.138;5.216;2023-04-28T06:31:57;101060.0;;;17.29;44.03
64019;BME280;66942;52.138;5.216;2023-04-28T06:35:10;101063.0;;;17.28;44.71
64019;BME280;66942;52.138;5.216;2023-04-28T06:36:46;101069.0;;;17.18;44.63
64019;BME280;66942;52.138;5.216;2023-04-28T06:38:22;101073.0;;;17.39;44.02
64019;BME280;66942;52.138;5.216;2023-04-28T06:41:34;101072.0;;;17.23;44.67
64019;BME280;66942;52.138;5.216;2023-04-28T06:43:10;101073.0;;;17.32;45.28
64019;BME280;66942;52.138;5.216;2023-04-28T06:44:46;101066.0;;;17.31;45.73
64019;BME280;66942;52.138;5.216;2023-04-28T06:47:59;101059.0;;;17.46;45.97
64019;BME280;66942;52.138;5.216;2023-04-28T06:49:35;101059.0;;;17.45;46.65
64019;BME280;66942;52.138;5.216;2023-04-28T06:51:10;101055.0;;;17.34;46.22
64019;BME280;66942;52.138;5.216;2023-04-28T06:54:22;101047.0;;;17.46;46.2
64019;BME280;66942;52.138;5.216;2023-04-28T06:55:58;101046.0;;;17.68;46.29
64019;BME280;66942;52.138;5.216;2023-04-28T06:57:36;101041.0;;;17.38;46.91
64019;BME280;66942;52.138;5.216;2023-04-28T06:59:12;101048.0;;;17.57;46.74
64019;BME280;66942;52.138;5.216;2023-04-28T07:02:24;101056.0;;;17.43;47.24
64019;BME280;66942;52.138;5.216;2023-04-28T07:04:00;101055.0;;;17.61;47.28
64019;BME280;66942;52.138;5.216;2023-04-28T07:05:36;101056.0;;;17.59;47.97
64019;BME280;66942;52.138;5.216;2023-04-28T07:08:48;101056.0;;;17.8;47.79
64019;BME280;66942;52.138;5.216;2023-04-28T07:10:24;101060.0;;;17.61;49.02
64019;BME280;66942;52.138;5.216;2023-04-28T07:12:01;101065.0;;;17.54;49.17
64019;BME280;66942;52.138;5.216;2023-04-28T07:15:14;101062.0;;;17.77;48.29
64019;BME280;66942;52.138;5.216;2023-04-28T07:16:50;101059.0;;;18.12;47.67
64019;BME280;66942;52.138;5.216;2023-04-28T07:18:26;101056.0;;;18.27;47.57
64019;BME280;66942;52.138;5.216;2023-04-28T07:21:39;101055.0;;;17.93;47.6
64019;BME280;66942;52.138;5.216;2023-04-28T07:23:16;101051.0;;;18.34;47.4
64019;BME280;66942;52.138;5.216;2023-04-28T07:24:52;101059.0;;;18.18;48.35
64019;BME280;66942;52.138;5.216;2023-04-28T07:26:29;101060.0;;;18.43;47.91
64019;BME280;66942;52.138;5.216;2023-04-28T07:29:42;101050.0;;;18.31;47.57
64019;BME280;66942;52.138;5.216;2023-04-28T07:31:18;101051.0;;;18.56;47.44
64019;BME280;66942;52.138;5.216;2023-04-28T07:32:54;101056.0;;;18.5;47.09
64019;BME280;66942;52.138;5.216;2023-04-28T07:36:07;101056.0;;;18.72;46.69
64019;BME280;66942;52.138;5.216;2023-04-28T07:37:43;101049.0;;;18.59;46.62
64019;BME280;66942;52.138;5.216;2023-04-28T07:39:19;101047.0;;;18.47;47.01
64019;BME280;66942;52.138;5.216;2023-04-28T07:42:31;101047.0;;;18.91;46.6
64019;BME280;66942;52.138;5.216;2023-04-28T07:44:07;101042.0;;;18.75;47.25
64019;BME280;66942;52.138;5.216;2023-04-28T07:45:43;101047.0;;;19.0;46.7
64019;BME280;66942;52.138;5.216;2023-04-28T07:47:19;101040.0;;;19.27;45.77
64019;BME280;66942;52.138;5.216;2023-04-28T07:50:32;101042.0;;;19.39;46.28
64019;BME280;66942;52.138;5.216;2023-04-28T07:52:09;101039.0;;;19.32;46.23
64019;BME280;66942;52.138;5.216;2023-04-28T07:53:45;101041.0;;;19.56;45.33
64019;BME280;66942;52.138;5.216;2023-04-28T07:56:57;101038.0;;;19.36;45.97
64019;BME280;66942;52.138;5.216;2023-04-28T07:58:33;101045.0;;;19.02;46.83
64019;BME280;66942;52.138;5.216;2023-04-28T08:00:10;101044.0;;;19.71;45.6
64019;BME280;66942;52.138;5.216;2023-04-28T08:03:22;101041.0;;;19.68;45.35
64019;BME280;66942;52.138;5.216;2023-04-28T08:04:59;101043.0;;;19.82;45.52
64019;BME280;66942;52.138;5.216;2023-04-28T08:06:35;101042.0;;;19.84;45.37
64019;BME280;66942;52.138;5.216;2023-04-28T08:09:47;101040.0;;;19.93;44.94
64019;BME280;66942;52.138;5.216;2023-04-28T08:11:23;101042.0;;;19.98;45.01
64019;BME280;66942;52.138;5.216;2023-04-28T08:13:00;101041.0;;;19.91;45.49
64019;BME280;66942;52.138;5.216;2023-04-28T08:14:37;101039.0;;;19.96;45.25
64019;BME280;66942;52.138;5.216;2023-04-28T08:17:49;101047.0;;;19.5;47.44
64019;BME280;66942;52.138;5.216;2023-04-28T08:19:26;101038.0;;;19.89;46.66
64019;BME280;66942;52.138;5.216;2023-04-28T08:21:02;101039.0;;;19.95;46.99
64019;BME280;66942;52.138;5.216;2023-04-28T08:24:14;101039.0;;;20.0;47.44
64019;BME280;66942;52.138;5.216;2023-04-28T08:25:50;101039.0;;;19.8;47.64
64019;BME280;66942;52.138;5.216;2023-04-28T08:27:27;101040.0;;;19.87;48.2
64019;BME280;66942;52.138;5.216;2023-04-28T08:30:39;101035.0;;;19.95;48.3
64019;BME280;66942;52.138;5.216;2023-04-28T08:32:15;101030.0;;;20.0;48.9
64019;BME280;66942;52.138;5.216;2023-04-28T08:33:51;101023.0;;;20.31;48.24
64019;BME280;66942;52.138;5.216;2023-04-28T08:35:28;101032.0;;;20.16;50.26
64019;BME280;66942;52.138;5.216;2023-04-28T08:38:42;101033.0;;;20.39;49.41
64019;BME280;66942;52.138;5.216;2023-04-28T08:40:18;101034.0;;;20.34;48.79
64019;BME280;66942;52.138;5.216;2023-04-28T08:41:55;101030.0;;;20.49;48.75
64019;BME280;66942;52.138;5.216;2023-04-28T08:45:12;101038.0;;;20.63;48.59
64019;BME280;66942;52.138;5.216;2023-04-28T08:46:48;101033.0;;;20.45;48.7
64019;BME280;66942;52.138;5.216;2023-04-28T08:48:31;101039.0;;;20.13;49.24
64019;BME280;66942;52.138;5.216;2023-04-28T08:50:14;101039.0;;;20.11;49.1
64019;BME280;66942;52.138;5.216;2023-04-28T08:53:36;101038.0;;;20.48;48.59
64019;BME280;66942;52.138;5.216;2023-04-28T08:55:14;101039.0;;;19.68;50.28
64019;BME280;66942;52.138;5.216;2023-04-28T08:56:51;101043.0;;;20.23;49.83
64019;BME280;66942;52.138;5.216;2023-04-28T08:58:27;101041.0;;;20.45;49.3
64019;BME280;66942;52.138;5.216;2023-04-28T09:01:40;101033.0;;;20.43;48.93
64019;BME280;66942;52.138;5.216;2023-04-28T09:03:16;101031.0;;;20.56;48.57
64019;BME280;66942;52.138;5.216;2023-04-28T09:04:52;101030.0;;;20.61;48.68
64019;BME280;66942;52.138;5.216;2023-04-28T09:08:08;101030.0;;;20.57;48.68
64019;BME280;66942;52.138;5.216;2023-04-28T09:09:44;101024.0;;;20.51;49.12
64019;BME280;66942;52.138;5.216;2023-04-28T09:11:20;101025.0;;;20.51;49.55
64019;BME280;66942;52.138;5.216;2023-04-28T09:14:34;101027.0;;;20.75;48.91
64019;BME280;66942;52.138;5.216;2023-04-28T09:16:11;101026.0;;;20.61;49.58
64019;BME280;66942;52.138;5.216;2023-04-28T09:17:48;101024.0;;;20.65;49.58
64019;BME280;66942;52.138;5.216;2023-04-28T09:19:32;101024.0;;;20.62;49.66
64019;BME280;66942;52.138;5.216;2023-04-28T09:22:45;101020.0;;;20.69;49.62
64019;BME280;66942;52.138;5.216;2023-04-28T09:24:29;101021.0;;;19.66;51.85
64019;BME280;66942;52.138;5.216;2023-04-28T09:26:06;101023.0;;;20.43;50.62
64019;BME280;66942;52.138;5.216;2023-04-28T09:27:43;101025.0;;;20.77;50.12
64019;BME280;66942;52.138;5.216;2023-04-28T09:30:55;101025.0;;;20.51;50.41
64019;BME280;66942;52.138;5.216;2023-04-28T09:32:31;101024.0;;;20.63;49.96
64019;BME280;66942;52.138;5.216;2023-04-28T09:34:07;101023.0;;;20.87;49.86
64019;BME280;66942;52.138;5.216;2023-04-28T09:37:21;101021.0;;;20.78;50.85
64019;BME280;66942;52.138;5.216;2023-04-28T09:38:59;101018.0;;;20.88;50.82
64019;BME280;66942;52.138;5.216;2023-04-28T09:40:48;101023.0;;;21.11;50.27
64019;BME280;66942;52.138;5.216;2023-04-28T09:42:31;101023.0;;;21.06;50.58
64019;BME280;66942;52.138;5.216;2023-04-28T09:45:46;101017.0;;;21.01;50.84
64019;BME280;66942;52.138;5.216;2023-04-28T09:47:22;101013.0;;;21.21;50.16
64019;BME280;66942;52.138;5.216;2023-04-28T09:49:00;101010.0;;;21.28;49.82
64019;BME280;66942;52.138;5.216;2023-04-28T09:52:15;101013.0;;;21.19;50.33
64019;BME280;66942;52.138;5.216;2023-04-28T09:53:51;101011.0;;;21.26;50.1
64019;BME280;66942;52.138;5.216;2023-04-28T09:55:29;101010.0;;;21.05;50.87
64019;BME280;66942;52.138;5.216;2023-04-28T09:57:08;101009.0;;;21.38;50.02
64019;BME280;66942;52.138;5.216;2023-04-28T10:00:26;101011.0;;;21.4;50.24
64019;BME280;66942;52.138;5.216;2023-04-28T10:02:04;101011.0;;;21.43;49.95
64019;BME280;66942;52.138;5.216;2023-04-28T10:03:40;101008.0;;;21.36;50.9
64019;BME280;66942;52.138;5.216;2023-04-28T10:06:55;101005.0;;;21.53;50.2
64019;BME280;66942;52.138;5.216;2023-04-28T10:08:32;101007.0;;;21.4;51.06
64019;BME280;66942;52.138;5.216;2023-04-28T10:10:10;101005.0;;;21.59;50.94
64019;BME280;66942;52.138;5.216;2023-04-28T10:11:46;101005.0;;;21.61;50.81
64019;BME280;66942;52.138;5.216;2023-04-28T10:15:00;101002.0;;;21.09;51.13
64019;BME280;66942;52.138;5.216;2023-04-28T10:16:37;101005.0;;;21.25;50.83
64019;BME280;66942;52.138;5.216;2023-04-28T10:18:14;101005.0;;;21.51;50.6
64019;BME280;66942;52.138;5.216;2023-04-28T10:21:32;101010.0;;;21.67;50.06
64019;BME280;66942;52.138;5.216;2023-04-28T10:24:17;101006.0;;;21.59;49.96
64019;BME280;66942;52.138;5.216;2023-04-28T10:26:02;101007.0;;;21.56;50.32
64019;BME280;66942;52.138;5.216;2023-04-28T10:27:46;101007.0;;;21.66;49.92
64019;BME280;66942;52.138;5.216;2023-04-28T10:29:24;101006.0;;;21.38;50.84
64019;BME280;66942;52.138;5.216;2023-04-28T10:31:09;101005.0;;;21.42;50.19
64019;BME280;66942;52.138;5.216;2023-04-28T10:32:45;101005.0;;;21.54;50.43
64019;BME280;66942;52.138;5.216;2023-04-28T10:35:59;101008.0;;;21.66;50.6
64019;BME280;66942;52.138;5.216;2023-04-28T10:38:08;101008.0;;;21.62;50.35
64019;BME280;66942;52.138;5.216;2023-04-28T10:40:50;101010.0;;;21.73;50.16
64019;BME280;66942;52.138;5.216;2023-04-28T10:42:58;101007.0;;;21.59;50.83
64019;BME280;66942;52.138;5.216;2023-04-28T10:44:41;101011.0;;;21.48;50.85
64019;BME280;66942;52.138;5.216;2023-04-28T10:46:17;101007.0;;;21.65;50.73
64019;BME280;66942;52.138;5.216;2023-04-28T10:48:00;101007.0;;;21.77;50.58
64019;BME280;66942;52.138;5.216;2023-04-28T10:50:09;101005.0;;;21.69;50.7
64019;BME280;66942;52.138;5.216;2023-04-28T10:51:46;101010.0;;;21.62;51.01
64019;BME280;66942;52.138;5.216;2023-04-28T10:55:42;101007.0;;;21.65;51.46
64019;BME280;66942;52.138;5.216;2023-04-28T10:58:56;101005.0;;;21.7;51.43
64019;BME280;66942;52.138;5.216;2023-04-28T11:00:33;101006.0;;;21.69;51.87
64019;BME280;66942;52.138;5.216;2023-04-28T11:02:41;101008.0;;;21.61;51.89
64019;BME280;66942;52.138;5.216;2023-04-28T11:04:17;101005.0;;;21.93;51.32
64019;BME280;66942;52.138;5.216;2023-04-28T11:08:33;101003.0;;;21.96;51.24
64019;BME280;66942;52.138;5.216;2023-04-28T11:10:09;101006.0;;;21.83;51.95